EWG763 LSZH-EDDK
Flight info
| Callsign | EWG763 |
|---|---|
| Flight time | 0h 50m |
| Altitude | 30000 |
| Route | DEGES Z1 SUDEN T844 UMDAS/N0363F240 T844 ASKIK T840 GULKO |
| Aircraft | A20N/M-SDE2E3FGHIRWXY/LB1 |
Departure
| Time | 2026-04-26 15:15 |
|---|---|
| Airport | Zürich Airport (LSZH) |
Arrival
| Time | 2026-04-26 16:05 |
|---|---|
| Airport | Cologne Bonn Airport (EDDK) |
| Time | Latitude | Longitude | Altitude | Speed | Heading |
|---|---|---|---|---|---|
| 2026-04-26 14:54 | 47.45430 | 8.55634 | 1406 ft | 0 kts | 186° |
| 2026-04-26 15:05 | 47.45433 | 8.55634 | 1414 ft | 1 kts | 186° |
| 2026-04-26 15:05 | 47.45438 | 8.55635 | 1414 ft | 1 kts | 186° |
| 2026-04-26 15:05 | 47.45448 | 8.55637 | 1408 ft | 1 kts | 186° |
| 2026-04-26 15:05 | 47.45458 | 8.55638 | 1410 ft | 3 kts | 186° |
| 2026-04-26 15:06 | 47.45478 | 8.55641 | 1409 ft | 3 kts | 186° |
| 2026-04-26 15:06 | 47.45498 | 8.55645 | 1412 ft | 3 kts | 200° |
| 2026-04-26 15:06 | 47.45513 | 8.55663 | 1416 ft | 3 kts | 258° |
| 2026-04-26 15:06 | 47.45514 | 8.55672 | 1416 ft | 0 kts | 281° |
| 2026-04-26 15:07 | 47.45515 | 8.55667 | 1416 ft | 2 kts | 281° |
| 2026-04-26 15:08 | 47.45518 | 8.55634 | 1409 ft | 5 kts | 277° |
| 2026-04-26 15:08 | 47.45522 | 8.55567 | 1406 ft | 9 kts | 275° |
| 2026-04-26 15:08 | 47.45529 | 8.55446 | 1407 ft | 15 kts | 275° |
| 2026-04-26 15:08 | 47.45553 | 8.55271 | 1401 ft | 18 kts | 311° |
| 2026-04-26 15:09 | 47.45614 | 8.55222 | 1402 ft | 7 kts | 334° |
| 2026-04-26 15:09 | 47.45671 | 8.55182 | 1398 ft | 11 kts | 334° |
| 2026-04-26 15:09 | 47.45755 | 8.55123 | 1400 ft | 15 kts | 334° |
| 2026-04-26 15:09 | 47.45859 | 8.55051 | 1403 ft | 18 kts | 335° |
| 2026-04-26 15:10 | 47.45979 | 8.54969 | 1394 ft | 21 kts | 335° |
| 2026-04-26 15:10 | 47.46073 | 8.54906 | 1387 ft | 23 kts | 336° |
| 2026-04-26 15:10 | 47.46276 | 8.54762 | 1385 ft | 26 kts | 335° |
| 2026-04-26 15:10 | 47.46447 | 8.54646 | 1384 ft | 27 kts | 335° |
| 2026-04-26 15:11 | 47.46619 | 8.54529 | 1385 ft | 28 kts | 335° |
| 2026-04-26 15:11 | 47.46805 | 8.54413 | 1381 ft | 30 kts | 339° |
| 2026-04-26 15:11 | 47.46998 | 8.54286 | 1383 ft | 30 kts | 335° |
| 2026-04-26 15:11 | 47.47190 | 8.54156 | 1383 ft | 30 kts | 334° |
| 2026-04-26 15:12 | 47.47381 | 8.54022 | 1389 ft | 30 kts | 335° |
| 2026-04-26 15:12 | 47.47565 | 8.53896 | 1399 ft | 29 kts | 333° |
| 2026-04-26 15:12 | 47.47673 | 8.53818 | 1402 ft | 0 kts | 334° |
| 2026-04-26 15:12 | 47.47699 | 8.53796 | 1400 ft | 10 kts | 317° |
| 2026-04-26 15:13 | 47.47696 | 8.53702 | 1408 ft | 0 kts | 234° |
| 2026-04-26 15:13 | 47.47693 | 8.53697 | 1408 ft | 1 kts | 234° |
| 2026-04-26 15:13 | 47.47681 | 8.53682 | 1403 ft | 4 kts | 215° |
| 2026-04-26 15:13 | 47.47640 | 8.53647 | 1402 ft | 10 kts | 194° |
| 2026-04-26 15:14 | 47.47550 | 8.53617 | 1398 ft | 16 kts | 178° |
| 2026-04-26 15:14 | 47.47513 | 8.53634 | 1406 ft | 16 kts | 155° |
| 2026-04-26 15:14 | 47.47166 | 8.53878 | 1383 ft | 91 kts | 156° |
| 2026-04-26 15:14 | 47.46405 | 8.54397 | 1384 ft | 146 kts | 155° |
| 2026-04-26 15:15 | 47.45404 | 8.55074 | 1779 ft | 158 kts | 152° |
| 2026-04-26 15:15 | 47.44365 | 8.55789 | 2289 ft | 171 kts | 150° |
| 2026-04-26 15:15 | 47.43279 | 8.56610 | 2929 ft | 174 kts | 147° |
| 2026-04-26 15:15 | 47.42178 | 8.57398 | 3553 ft | 182 kts | 150° |
| 2026-04-26 15:16 | 47.40956 | 8.58218 | 3991 ft | 203 kts | 153° |
| 2026-04-26 15:16 | 47.39603 | 8.59114 | 4479 ft | 224 kts | 152° |
| 2026-04-26 15:16 | 47.38370 | 8.60453 | 5280 ft | 224 kts | 128° |
| 2026-04-26 15:16 | 47.37653 | 8.62495 | 6140 ft | 225 kts | 100° |
| 2026-04-26 15:17 | 47.37695 | 8.64783 | 6884 ft | 232 kts | 70° |
| 2026-04-26 15:17 | 47.38163 | 8.66234 | 7401 ft | 235 kts | 55° |
| 2026-04-26 15:17 | 47.39868 | 8.68151 | 8406 ft | 241 kts | 13° |
| 2026-04-26 15:17 | 47.41530 | 8.68168 | 9191 ft | 242 kts | 340° |
| 2026-04-26 15:18 | 47.43090 | 8.67178 | 9923 ft | 253 kts | 341° |
| 2026-04-26 15:18 | 47.44914 | 8.66926 | 10294 ft | 278 kts | 7° |
| 2026-04-26 15:18 | 47.46804 | 8.67964 | 10602 ft | 304 kts | 32° |
| 2026-04-26 15:18 | 47.48361 | 8.70224 | 10971 ft | 327 kts | 56° |
| 2026-04-26 15:19 | 47.49283 | 8.73400 | 11292 ft | 348 kts | 78° |
| 2026-04-26 15:19 | 47.49337 | 8.77019 | 11911 ft | 356 kts | 101° |
| 2026-04-26 15:19 | 47.48546 | 8.80474 | 12807 ft | 355 kts | 116° |
| 2026-04-26 15:19 | 47.47435 | 8.83770 | 13580 ft | 362 kts | 117° |
| 2026-04-26 15:20 | 47.46357 | 8.87155 | 14302 ft | 367 kts | 113° |
| 2026-04-26 15:20 | 47.45528 | 8.90752 | 14927 ft | 373 kts | 106° |
| 2026-04-26 15:20 | 47.44898 | 8.94493 | 15641 ft | 377 kts | 102° |
| 2026-04-26 15:20 | 47.44354 | 8.98297 | 16332 ft | 382 kts | 101° |
| 2026-04-26 15:21 | 47.43825 | 9.02163 | 16995 ft | 386 kts | 101° |
| 2026-04-26 15:21 | 47.43284 | 9.06063 | 17665 ft | 390 kts | 101° |
| 2026-04-26 15:21 | 47.42916 | 9.08674 | 18088 ft | 394 kts | 101° |
| 2026-04-26 15:21 | 47.42347 | 9.12653 | 18704 ft | 399 kts | 101° |
| 2026-04-26 15:22 | 47.41842 | 9.16694 | 19291 ft | 401 kts | 94° |
| 2026-04-26 15:22 | 47.42000 | 9.20805 | 19853 ft | 403 kts | 76° |
| 2026-04-26 15:22 | 47.42952 | 9.24683 | 20394 ft | 404 kts | 59° |
| 2026-04-26 15:22 | 47.44344 | 9.28315 | 20940 ft | 408 kts | 58° |
| 2026-04-26 15:23 | 47.45780 | 9.31965 | 21499 ft | 412 kts | 58° |
| 2026-04-26 15:23 | 47.47233 | 9.35642 | 22047 ft | 416 kts | 56° |
| 2026-04-26 15:23 | 47.49025 | 9.38900 | 22563 ft | 415 kts | 40° |
| 2026-04-26 15:23 | 47.51373 | 9.41369 | 23082 ft | 414 kts | 24° |
| 2026-04-26 15:24 | 47.54052 | 9.42925 | 23595 ft | 414 kts | 15° |
| 2026-04-26 15:24 | 47.56809 | 9.44212 | 24054 ft | 416 kts | 11° |
| 2026-04-26 15:24 | 47.59652 | 9.45039 | 24522 ft | 416 kts | 4° |
| 2026-04-26 15:24 | 47.62539 | 9.45347 | 24980 ft | 417 kts | 358° |
| 2026-04-26 15:25 | 47.65447 | 9.45468 | 25399 ft | 420 kts | 359° |
| 2026-04-26 15:25 | 47.68384 | 9.45623 | 25836 ft | 423 kts | 359° |
| 2026-04-26 15:25 | 47.71342 | 9.45788 | 26258 ft | 426 kts | 359° |
| 2026-04-26 15:25 | 47.74295 | 9.45953 | 26672 ft | 429 kts | 359° |
| 2026-04-26 15:26 | 47.77253 | 9.46117 | 27068 ft | 432 kts | 359° |
| 2026-04-26 15:26 | 47.80266 | 9.46281 | 27466 ft | 435 kts | 359° |
| 2026-04-26 15:26 | 47.83305 | 9.46359 | 27851 ft | 437 kts | 357° |
| 2026-04-26 15:26 | 47.86352 | 9.46337 | 28259 ft | 439 kts | 356° |
| 2026-04-26 15:27 | 47.89429 | 9.46294 | 28628 ft | 442 kts | 356° |
| 2026-04-26 15:27 | 47.92520 | 9.46259 | 28992 ft | 445 kts | 356° |
| 2026-04-26 15:27 | 47.95628 | 9.46237 | 29334 ft | 447 kts | 356° |
| 2026-04-26 15:27 | 47.98759 | 9.46224 | 29674 ft | 450 kts | 356° |
| 2026-04-26 15:28 | 48.01896 | 9.46215 | 30008 ft | 453 kts | 356° |
| 2026-04-26 15:28 | 48.05015 | 9.46209 | 30196 ft | 455 kts | 356° |
| 2026-04-26 15:28 | 48.11335 | 9.46199 | 30193 ft | 453 kts | 356° |
| 2026-04-26 15:29 | 48.17655 | 9.46187 | 30187 ft | 453 kts | 356° |
| 2026-04-26 15:30 | 48.30249 | 9.46199 | 30197 ft | 446 kts | 357° |
| 2026-04-26 15:30 | 48.36469 | 9.46205 | 30195 ft | 448 kts | 357° |
| 2026-04-26 15:31 | 48.45824 | 9.46212 | 30201 ft | 448 kts | 357° |
| 2026-04-26 15:32 | 48.53902 | 9.44476 | 30198 ft | 439 kts | 334° |
| 2026-04-26 15:32 | 48.57419 | 9.41441 | 30207 ft | 434 kts | 322° |
| 2026-04-26 15:32 | 48.59883 | 9.38810 | 30204 ft | 434 kts | 322° |
| 2026-04-26 15:33 | 48.64792 | 9.33589 | 30215 ft | 434 kts | 322° |
| 2026-04-26 15:33 | 48.69726 | 9.28326 | 30209 ft | 434 kts | 322° |
| 2026-04-26 15:34 | 48.74661 | 9.23042 | 30211 ft | 434 kts | 322° |
| 2026-04-26 15:34 | 48.79587 | 9.17751 | 30208 ft | 431 kts | 323° |
| 2026-04-26 15:35 | 48.84479 | 9.12488 | 30209 ft | 431 kts | 323° |
| 2026-04-26 15:35 | 48.89673 | 9.07916 | 30207 ft | 434 kts | 334° |
| 2026-04-26 15:36 | 48.95399 | 9.04869 | 30216 ft | 435 kts | 340° |
| 2026-04-26 15:36 | 49.01102 | 9.01980 | 30211 ft | 435 kts | 339° |
| 2026-04-26 15:37 | 49.06846 | 8.99072 | 30214 ft | 434 kts | 340° |
| 2026-04-26 15:37 | 49.12592 | 8.96166 | 30214 ft | 434 kts | 340° |
| 2026-04-26 15:38 | 49.18328 | 8.93258 | 30230 ft | 434 kts | 340° |
| 2026-04-26 15:38 | 49.24082 | 8.90334 | 30221 ft | 435 kts | 340° |
| 2026-04-26 15:39 | 49.29790 | 8.87426 | 30229 ft | 429 kts | 340° |
| 2026-04-26 15:39 | 49.34507 | 8.85018 | 30230 ft | 431 kts | 340° |
| 2026-04-26 15:40 | 49.41153 | 8.81641 | 30241 ft | 429 kts | 341° |
| 2026-04-26 15:40 | 49.46884 | 8.79145 | 30238 ft | 431 kts | 343° |
| 2026-04-26 15:41 | 49.52667 | 8.76682 | 30238 ft | 431 kts | 342° |
| 2026-04-26 15:41 | 49.58435 | 8.74167 | 30237 ft | 431 kts | 342° |
| 2026-04-26 15:42 | 49.64197 | 8.71631 | 30250 ft | 430 kts | 342° |
| 2026-04-26 15:42 | 49.69944 | 8.69093 | 30237 ft | 429 kts | 342° |
| 2026-04-26 15:43 | 49.75648 | 8.66569 | 30242 ft | 429 kts | 342° |
| 2026-04-26 15:44 | 49.84270 | 8.62744 | 30252 ft | 429 kts | 342° |
| 2026-04-26 15:44 | 49.92891 | 8.58904 | 30244 ft | 429 kts | 342° |
| 2026-04-26 15:45 | 50.01503 | 8.55055 | 30236 ft | 429 kts | 342° |
| 2026-04-26 15:46 | 50.09990 | 8.50814 | 30236 ft | 429 kts | 339° |
| 2026-04-26 15:46 | 50.14716 | 8.48275 | 30239 ft | 428 kts | 340° |
| 2026-04-26 15:47 | 50.24077 | 8.43227 | 30255 ft | 428 kts | 339° |
| 2026-04-26 15:48 | 50.29604 | 8.39786 | 30256 ft | 427 kts | 332° |
| 2026-04-26 15:48 | 50.34640 | 8.34958 | 29754 ft | 422 kts | 327° |
| 2026-04-26 15:48 | 50.37113 | 8.32502 | 29130 ft | 420 kts | 327° |
| 2026-04-26 15:49 | 50.39566 | 8.30067 | 28586 ft | 415 kts | 327° |
| 2026-04-26 15:49 | 50.41993 | 8.27651 | 27942 ft | 411 kts | 327° |
| 2026-04-26 15:49 | 50.44399 | 8.25247 | 27299 ft | 409 kts | 326° |
| 2026-04-26 15:49 | 50.46789 | 8.22854 | 26672 ft | 406 kts | 326° |
| 2026-04-26 15:50 | 50.49127 | 8.20509 | 26074 ft | 403 kts | 326° |
| 2026-04-26 15:50 | 50.51483 | 8.18142 | 25482 ft | 400 kts | 326° |
| 2026-04-26 15:50 | 50.53821 | 8.15791 | 24892 ft | 397 kts | 326° |
| 2026-04-26 15:50 | 50.56142 | 8.13454 | 24321 ft | 395 kts | 326° |
| 2026-04-26 15:51 | 50.58450 | 8.11127 | 23731 ft | 393 kts | 326° |
| 2026-04-26 15:51 | 50.60745 | 8.08812 | 23054 ft | 391 kts | 326° |
| 2026-04-26 15:51 | 50.63033 | 8.06498 | 22358 ft | 389 kts | 326° |
| 2026-04-26 15:51 | 50.65301 | 8.04197 | 21705 ft | 387 kts | 326° |
| 2026-04-26 15:52 | 50.67560 | 8.01904 | 21064 ft | 385 kts | 326° |
| 2026-04-26 15:52 | 50.69798 | 7.99628 | 20447 ft | 383 kts | 326° |
| 2026-04-26 15:52 | 50.72039 | 7.97346 | 19824 ft | 381 kts | 326° |
| 2026-04-26 15:52 | 50.73481 | 7.95788 | 19419 ft | 379 kts | 322° |
| 2026-04-26 15:53 | 50.76073 | 7.92063 | 18633 ft | 375 kts | 311° |
| 2026-04-26 15:53 | 50.77694 | 7.88863 | 17982 ft | 372 kts | 304° |
| 2026-04-26 15:53 | 50.79177 | 7.85523 | 17326 ft | 370 kts | 305° |
| 2026-04-26 15:53 | 50.80662 | 7.82219 | 16677 ft | 368 kts | 305° |
| 2026-04-26 15:54 | 50.82142 | 7.78932 | 16139 ft | 364 kts | 305° |
| 2026-04-26 15:54 | 50.83589 | 7.75713 | 15789 ft | 354 kts | 305° |
| 2026-04-26 15:54 | 50.85010 | 7.72543 | 15229 ft | 352 kts | 305° |
| 2026-04-26 15:54 | 50.86427 | 7.69372 | 14628 ft | 352 kts | 305° |
| 2026-04-26 15:55 | 50.87841 | 7.66202 | 14030 ft | 351 kts | 306° |
| 2026-04-26 15:55 | 50.89251 | 7.63037 | 13378 ft | 351 kts | 306° |
| 2026-04-26 15:55 | 50.90636 | 7.59924 | 12730 ft | 350 kts | 306° |
| 2026-04-26 15:55 | 50.92035 | 7.56774 | 12091 ft | 348 kts | 306° |
| 2026-04-26 15:56 | 50.93426 | 7.53640 | 11470 ft | 347 kts | 306° |
| 2026-04-26 15:56 | 50.94543 | 7.50270 | 10859 ft | 347 kts | 288° |
| 2026-04-26 15:56 | 50.94816 | 7.46487 | 10297 ft | 349 kts | 268° |
| 2026-04-26 15:56 | 50.94192 | 7.42770 | 9650 ft | 353 kts | 246° |
| 2026-04-26 15:57 | 50.92744 | 7.39634 | 9001 ft | 357 kts | 225° |
| 2026-04-26 15:57 | 50.90656 | 7.37509 | 8382 ft | 360 kts | 202° |
| 2026-04-26 15:57 | 50.88243 | 7.36768 | 8174 ft | 349 kts | 184° |
| 2026-04-26 15:57 | 50.86666 | 7.36674 | 8034 ft | 336 kts | 183° |
| 2026-04-26 15:58 | 50.83684 | 7.36981 | 7772 ft | 311 kts | 162° |
| 2026-04-26 15:58 | 50.81843 | 7.38549 | 7575 ft | 293 kts | 144° |
| 2026-04-26 15:58 | 50.80224 | 7.40445 | 7162 ft | 287 kts | 143° |
| 2026-04-26 15:58 | 50.78629 | 7.42328 | 6664 ft | 283 kts | 143° |
| 2026-04-26 15:59 | 50.77081 | 7.44153 | 6175 ft | 279 kts | 143° |
| 2026-04-26 15:59 | 50.75531 | 7.45981 | 5642 ft | 277 kts | 143° |
| 2026-04-26 15:59 | 50.73898 | 7.47517 | 5231 ft | 273 kts | 162° |
| 2026-04-26 15:59 | 50.72044 | 7.47790 | 4874 ft | 269 kts | 190° |
| 2026-04-26 16:00 | 50.70325 | 7.46705 | 4406 ft | 268 kts | 218° |
| 2026-04-26 16:00 | 50.69157 | 7.44499 | 4174 ft | 258 kts | 248° |
| 2026-04-26 16:00 | 50.68838 | 7.41829 | 4058 ft | 243 kts | 277° |
| 2026-04-26 16:00 | 50.69292 | 7.39365 | 3959 ft | 229 kts | 293° |
| 2026-04-26 16:01 | 50.70038 | 7.37212 | 3737 ft | 222 kts | 314° |
| 2026-04-26 16:01 | 50.71154 | 7.35561 | 3504 ft | 219 kts | 320° |
| 2026-04-26 16:01 | 50.72319 | 7.34014 | 3249 ft | 218 kts | 323° |
| 2026-04-26 16:01 | 50.73502 | 7.32556 | 3033 ft | 216 kts | 324° |
| 2026-04-26 16:02 | 50.74696 | 7.31107 | 2995 ft | 221 kts | 323° |
| 2026-04-26 16:02 | 50.75897 | 7.29621 | 2997 ft | 218 kts | 323° |
| 2026-04-26 16:02 | 50.77071 | 7.28155 | 3029 ft | 206 kts | 322° |
| 2026-04-26 16:02 | 50.77810 | 7.27259 | 3003 ft | 191 kts | 324° |
| 2026-04-26 16:03 | 50.79120 | 7.25673 | 2885 ft | 173 kts | 321° |
| 2026-04-26 16:03 | 50.80058 | 7.24440 | 2554 ft | 175 kts | 321° |
| 2026-04-26 16:03 | 50.80958 | 7.23230 | 2238 ft | 166 kts | 318° |
| 2026-04-26 16:03 | 50.81793 | 7.22004 | 1914 ft | 157 kts | 317° |
| 2026-04-26 16:04 | 50.82561 | 7.20849 | 1472 ft | 148 kts | 317° |
| 2026-04-26 16:04 | 50.83302 | 7.19782 | 1131 ft | 139 kts | 318° |
| 2026-04-26 16:04 | 50.83988 | 7.18775 | 843 ft | 133 kts | 317° |
| 2026-04-26 16:04 | 50.84660 | 7.17794 | 585 ft | 127 kts | 317° |
| 2026-04-26 16:05 | 50.85324 | 7.16849 | 411 ft | 130 kts | 316° |
| 2026-04-26 16:05 | 50.85977 | 7.15908 | 300 ft | 120 kts | 316° |
| 2026-04-26 16:05 | 50.86463 | 7.15203 | 281 ft | 66 kts | 317° |
| 2026-04-26 16:05 | 50.86673 | 7.14900 | 271 ft | 30 kts | 318° |
| 2026-04-26 16:06 | 50.86826 | 7.14649 | 263 ft | 33 kts | 303° |
| 2026-04-26 16:06 | 50.86884 | 7.14360 | 258 ft | 10 kts | 279° |
| 2026-04-26 16:06 | 50.86887 | 7.14331 | 258 ft | 0 kts | 279° |
| 2026-04-26 16:08 | 50.86889 | 7.14311 | 257 ft | 5 kts | 279° |
| 2026-04-26 16:08 | 50.86897 | 7.14226 | 255 ft | 11 kts | 279° |
| 2026-04-26 16:09 | 50.86911 | 7.14091 | 255 ft | 14 kts | 279° |
| 2026-04-26 16:09 | 50.86923 | 7.13981 | 251 ft | 17 kts | 278° |
| 2026-04-26 16:09 | 50.87004 | 7.13804 | 243 ft | 22 kts | 318° |
| 2026-04-26 16:09 | 50.87120 | 7.13638 | 239 ft | 24 kts | 317° |
| 2026-04-26 16:10 | 50.87251 | 7.13447 | 235 ft | 27 kts | 317° |
| 2026-04-26 16:10 | 50.87393 | 7.13241 | 232 ft | 28 kts | 317° |
| 2026-04-26 16:10 | 50.87542 | 7.13025 | 234 ft | 29 kts | 316° |
| 2026-04-26 16:10 | 50.87686 | 7.12817 | 234 ft | 27 kts | 317° |
| 2026-04-26 16:11 | 50.87762 | 7.12699 | 232 ft | 8 kts | 305° |
| 2026-04-26 16:11 | 50.87764 | 7.12605 | 232 ft | 10 kts | 255° |
| 2026-04-26 16:11 | 50.87747 | 7.12509 | 232 ft | 9 kts | 286° |
| 2026-04-26 16:11 | 50.87768 | 7.12410 | 232 ft | 8 kts | 288° |